Time,TemperatureF,DewpointF,PressureIn,WindDirection,WindDirectionDegrees,WindSpeedMPH,WindSpeedGustMPH,Humidity,HourlyPrecipIn,Conditions,Clouds,dailyrainin,SoftwareType,DateUTC
2013-01-22 00:00:00,52.0,43.0,30.09,WNW,293,0.0,0.0,71,0.00,,,0.00,WUHU216HW,2013-01-22 05:00:00,
2013-01-22 00:01:00,52.0,43.0,30.09,WNW,293,0.0,0.0,71,0.00,,,0.00,WUHU216HW,2013-01-22 05:01:00,
2013-01-22 00:06:00,51.8,42.5,30.09,WNW,293,0.0,0.2,70,0.00,,,0.00,WUHU216HW,2013-01-22 05:06:00,
2013-01-22 00:11:00,51.5,42.1,30.09,WNW,293,0.0,0.2,70,0.00,,,0.00,WUHU216HW,2013-01-22 05:11:00,
2013-01-22 00:16:00,51.5,42.1,30.09,WNW,293,0.0,0.0,70,0.00,,,0.00,WUHU216HW,2013-01-22 05:16:00,
2013-01-22 00:21:00,51.3,41.9,30.09,WNW,293,0.0,0.0,70,0.00,,,0.00,WUHU216HW,2013-01-22 05:21:00,
2013-01-22 00:26:00,51.3,41.9,30.09,WNW,293,0.0,0.0,70,0.00,,,0.00,WUHU216HW,2013-01-22 05:26:00,
2013-01-22 00:31:00,51.3,41.9,30.09,WNW,293,0.0,0.0,70,0.00,,,0.00,WUHU216HW,2013-01-22 05:31:00,
2013-01-22 00:36:00,51.1,42.1,30.09,NW,315,0.0,0.0,71,0.00,,,0.00,WUHU216HW,2013-01-22 05:36:00,
2013-01-22 00:41:00,51.1,42.1,30.09,NNW,338,0.0,0.0,71,0.00,,,0.00,WUHU216HW,2013-01-22 05:41:00,
2013-01-22 00:46:00,51.1,41.8,30.08,NNW,338,0.0,0.0,70,0.00,,,0.00,WUHU216HW,2013-01-22 05:46:00,
2013-01-22 00:51:00,51.3,41.9,30.08,NNW,338,0.0,0.0,70,0.00,,,0.00,WUHU216HW,2013-01-22 05:51:00,
2013-01-22 00:56:00,51.3,41.9,30.08,NNW,338,0.0,0.0,70,0.00,,,0.00,WUHU216HW,2013-01-22 05:56:00,
2013-01-22 01:01:00,51.1,41.8,30.08,NNW,338,0.0,0.0,70,0.00,,,0.00,WUHU216HW,2013-01-22 06:01:00,
2013-01-22 01:06:00,51.1,41.8,30.09,NNW,338,0.0,0.0,70,0.00,,,0.00,WUHU216HW,2013-01-22 06:06:00,
2013-01-22 01:11:00,51.1,41.8,30.08,NNW,338,0.0,0.0,70,0.00,,,0.00,WUHU216HW,2013-01-22 06:11:00,
2013-01-22 01:16:00,51.1,41.8,30.08,NNW,338,0.0,0.0,70,0.00,,,0.00,WUHU216HW,2013-01-22 06:16:00,
2013-01-22 01:21:00,50.9,41.6,30.09,WNW,293,0.0,0.7,70,0.00,,,0.00,WUHU216HW,2013-01-22 06:21:00,
2013-01-22 01:26:00,50.9,41.6,30.08,WNW,293,0.0,1.3,70,0.00,,,0.00,WUHU216HW,2013-01-22 06:26:00,
2013-01-22 01:31:00,50.9,41.6,30.08,WNW,293,0.0,1.3,70,0.00,,,0.00,WUHU216HW,2013-01-22 06:31:00,
2013-01-22 01:36:00,50.9,41.6,30.08,NW,315,0.0,0.4,70,0.00,,,0.00,WUHU216HW,2013-01-22 06:36:00,
2013-01-22 01:41:00,50.9,41.6,30.09,West,270,0.0,0.4,70,0.00,,,0.00,WUHU216HW,2013-01-22 06:41:00,
2013-01-22 01:46:00,50.9,41.2,30.08,NW,315,0.0,0.4,69,0.00,,,0.00,WUHU216HW,2013-01-22 06:46:00,
2013-01-22 01:51:00,51.1,41.3,30.08,NW,315,0.0,0.9,69,0.00,,,0.00,WUHU216HW,2013-01-22 06:51:00,
2013-01-22 01:56:00,51.1,41.3,30.08,North,0,0.0,0.9,69,0.00,,,0.00,WUHU216HW,2013-01-22 06:56:00,
2013-01-22 02:01:00,51.5,41.3,30.09,NNW,338,0.0,0.9,68,0.00,,,0.00,WUHU216HW,2013-01-22 07:01:00,
2013-01-22 02:06:00,51.5,41.3,30.09,NNW,338,0.7,1.6,68,0.00,,,0.00,WUHU216HW,2013-01-22 07:06:00,
2013-01-22 02:11:00,51.5,41.3,30.09,North,0,0.0,1.6,68,0.00,,,0.00,WUHU216HW,2013-01-22 07:11:00,
2013-01-22 02:16:00,51.7,41.5,30.09,NNW,338,0.0,0.9,68,0.00,,,0.00,WUHU216HW,2013-01-22 07:16:00,
2013-01-22 02:21:00,51.7,41.5,30.09,WNW,293,0.2,0.9,68,0.00,,,0.00,WUHU216HW,2013-01-22 07:21:00,
2013-01-22 02:26:00,51.8,41.2,30.09,North,0,0.2,1.8,67,0.00,,,0.00,WUHU216HW,2013-01-22 07:26:00,
2013-01-22 02:31:00,51.8,40.4,30.08,NNW,338,1.1,1.8,65,0.00,,,0.00,WUHU216HW,2013-01-22 07:31:00,
2013-01-22 02:36:00,52.2,40.8,30.09,NNW,338,0.2,1.1,65,0.00,,,0.00,WUHU216HW,2013-01-22 07:36:00,
2013-01-22 02:41:00,52.2,40.3,30.09,NNW,338,0.2,1.1,64,0.00,,,0.00,WUHU216HW,2013-01-22 07:41:00,
2013-01-22 02:46:00,52.4,40.5,30.09,NW,315,0.0,0.7,64,0.00,,,0.00,WUHU216HW,2013-01-22 07:46:00,
2013-01-22 02:51:00,52.2,40.0,30.09,North,0,0.0,1.1,63,0.00,,,0.00,WUHU216HW,2013-01-22 07:51:00,
2013-01-22 02:56:00,52.2,40.0,30.09,North,0,1.8,1.8,63,0.00,,,0.00,WUHU216HW,2013-01-22 07:56:00,
2013-01-22 03:01:00,52.2,40.3,30.09,North,0,0.0,1.8,64,0.00,,,0.00,WUHU216HW,2013-01-22 08:01:00,
2013-01-22 03:06:00,52.2,40.3,30.09,NW,315,0.0,1.8,64,0.00,,,0.00,WUHU216HW,2013-01-22 08:06:00,
2013-01-22 03:11:00,52.2,40.0,30.10,North,0,0.7,0.7,63,0.00,,,0.00,WUHU216HW,2013-01-22 08:11:00,
2013-01-22 03:16:00,52.2,40.0,30.09,North,0,0.7,0.7,63,0.00,,,0.00,WUHU216HW,2013-01-22 08:16:00,
2013-01-22 03:21:00,52.2,40.0,30.09,North,0,0.7,0.7,63,0.00,,,0.00,WUHU216HW,2013-01-22 08:21:00,
2013-01-22 03:22:00,52.2,40.0,30.09,North,0,0.7,0.7,63,0.00,,,0.00,WUHU216HW,2013-01-22 08:22:00,
2013-01-22 03:26:00,52.2,40.0,30.09,North,0,0.7,0.7,63,0.00,,,0.00,WUHU216HW,2013-01-22 08:26:00,
2013-01-22 03:31:00,52.2,40.0,30.09,North,0,0.7,0.7,63,0.00,,,0.00,WUHU216HW,2013-01-22 08:31:00,
2013-01-22 04:28:00,50.8,39.4,30.09,NNE,23,0.0,0.0,65,0.00,,,0.00,WUHU216HW,2013-01-22 09:28:00,
2013-01-22 04:33:00,50.6,39.3,30.10,NNW,338,0.0,0.0,65,0.00,,,0.00,WUHU216HW,2013-01-22 09:33:00,
2013-01-22 04:38:00,50.4,38.6,30.10,NNW,338,0.0,0.9,64,0.00,,,0.00,WUHU216HW,2013-01-22 09:38:00,
2013-01-22 04:44:00,50.2,38.4,30.10,NE,45,0.4,1.1,64,0.00,,,0.00,WUHU216HW,2013-01-22 09:44:00,
2013-01-22 04:49:00,50.2,38.4,30.10,North,0,0.4,1.1,64,0.00,,,0.00,WUHU216HW,2013-01-22 09:49:00,
2013-01-22 04:54:00,50.2,38.4,30.10,NNE,23,0.2,0.4,64,0.00,,,0.00,WUHU216HW,2013-01-22 09:54:00,
2013-01-22 04:58:00,50.0,38.4,30.10,NE,45,0.0,0.4,64,0.00,,,0.00,WUHU216HW,2013-01-22 09:58:00,
2013-01-22 05:03:00,49.9,38.2,30.11,North,0,1.1,1.1,64,0.00,,,0.00,WUHU216HW,2013-01-22 10:03:00,
2013-01-22 05:08:00,49.7,38.0,30.11,North,0,0.0,1.1,64,0.00,,,0.00,WUHU216HW,2013-01-22 10:08:00,
2013-01-22 05:13:00,49.7,38.0,30.11,North,0,0.0,1.1,64,0.00,,,0.00,WUHU216HW,2013-01-22 10:13:00,
2013-01-22 05:19:00,49.3,38.0,30.11,NW,315,0.0,0.4,65,0.00,,,0.00,WUHU216HW,2013-01-22 10:19:00,
2013-01-22 05:24:00,49.1,37.8,30.12,WNW,293,0.4,0.4,65,0.00,,,0.00,WUHU216HW,2013-01-22 10:24:00,
2013-01-22 05:29:00,49.0,37.7,30.12,NE,45,0.2,1.3,65,0.00,,,0.00,WUHU216HW,2013-01-22 10:29:00,
2013-01-22 05:34:00,48.8,37.5,30.13,NNE,23,0.4,1.6,65,0.00,,,0.00,WUHU216HW,2013-01-22 10:34:00,
2013-01-22 05:39:00,48.6,37.4,30.13,NNW,338,0.4,1.6,65,0.00,,,0.00,WUHU216HW,2013-01-22 10:39:00,
2013-01-22 05:44:00,48.6,37.4,30.13,NNW,338,0.2,1.6,65,0.00,,,0.00,WUHU216HW,2013-01-22 10:44:00,
2013-01-22 05:49:00,48.4,37.2,30.13,NNE,23,0.2,1.6,65,0.00,,,0.00,WUHU216HW,2013-01-22 10:49:00,
2013-01-22 05:54:00,48.4,37.2,30.13,WNW,293,0.0,1.3,65,0.00,,,0.00,WUHU216HW,2013-01-22 10:54:00,
2013-01-22 05:59:00,48.1,36.5,30.13,North,0,0.4,1.3,64,0.00,,,0.00,WUHU216HW,2013-01-22 10:59:00,
2013-01-22 06:04:00,48.1,36.8,30.14,NW,315,0.2,1.3,65,0.00,,,0.00,WUHU216HW,2013-01-22 11:04:00,
2013-01-22 06:09:00,47.9,36.6,30.14,North,0,0.0,0.7,65,0.00,,,0.00,WUHU216HW,2013-01-22 11:09:00,
2013-01-22 06:14:00,47.9,36.6,30.14,NNW,338,0.2,0.9,65,0.00,,,0.00,WUHU216HW,2013-01-22 11:14:00,
2013-01-22 06:19:00,47.7,36.5,30.14,North,0,0.4,1.1,65,0.00,,,0.00,WUHU216HW,2013-01-22 11:19:00,
2013-01-22 06:24:00,47.5,36.3,30.15,NNW,338,0.0,1.6,65,0.00,,,0.00,WUHU216HW,2013-01-22 11:24:00,
2013-01-22 06:29:00,47.3,36.2,30.16,NW,315,0.4,1.6,65,0.00,,,0.00,WUHU216HW,2013-01-22 11:29:00,
2013-01-22 06:34:00,47.2,36.0,30.16,NW,315,0.2,1.3,65,0.00,,,0.00,WUHU216HW,2013-01-22 11:34:00,
2013-01-22 06:39:00,47.2,36.4,30.16,North,0,0.0,1.1,66,0.00,,,0.00,WUHU216HW,2013-01-22 11:39:00,
2013-01-22 06:44:00,47.0,36.2,30.16,North,0,0.4,2.2,66,0.00,,,0.00,WUHU216HW,2013-01-22 11:44:00,
2013-01-22 06:49:00,46.8,36.0,30.16,NNW,338,0.2,2.2,66,0.00,,,0.00,WUHU216HW,2013-01-22 11:49:00,
2013-01-22 06:54:00,46.6,35.8,30.17,NNW,338,0.0,1.1,66,0.00,,,0.00,WUHU216HW,2013-01-22 11:54:00,
2013-01-22 06:59:00,46.4,35.6,30.17,NNW,338,0.4,2.0,66,0.00,,,0.00,WUHU216HW,2013-01-22 11:59:00,
2013-01-22 07:04:00,46.4,36.1,30.17,NW,315,0.2,2.5,67,0.00,,,0.00,WUHU216HW,2013-01-22 12:04:00,
2013-01-22 07:09:00,46.4,36.1,30.18,NNW,338,0.0,2.5,67,0.00,,,0.00,WUHU216HW,2013-01-22 12:09:00,
2013-01-22 07:14:00,46.3,35.9,30.18,North,0,0.4,0.9,67,0.00,,,0.00,WUHU216HW,2013-01-22 12:14:00,
2013-01-22 07:19:00,46.1,35.7,30.18,NNW,338,0.2,0.9,67,0.00,,,0.00,WUHU216HW,2013-01-22 12:19:00,
2013-01-22 07:24:00,45.9,35.6,30.18,NNW,338,0.0,1.8,67,0.00,,,0.00,WUHU216HW,2013-01-22 12:24:00,
2013-01-22 07:29:00,45.9,35.6,30.19,NNW,338,1.1,1.8,67,0.00,,,0.00,WUHU216HW,2013-01-22 12:29:00,
2013-01-22 07:34:00,45.7,35.4,30.19,North,0,0.2,1.6,67,0.00,,,0.00,WUHU216HW,2013-01-22 12:34:00,
2013-01-22 07:39:00,45.7,35.4,30.19,NW,315,0.2,1.1,67,0.00,,,0.00,WUHU216HW,2013-01-22 12:39:00,
2013-01-22 07:44:00,45.7,35.4,30.19,NNW,338,2.7,2.7,67,0.00,,,0.00,WUHU216HW,2013-01-22 12:44:00,
2013-01-22 07:49:00,45.9,35.6,30.20,NW,315,0.4,3.4,67,0.00,,,0.00,WUHU216HW,2013-01-22 12:49:00,
2013-01-22 07:54:00,45.9,35.6,30.20,NNW,338,0.2,3.4,67,0.00,,,0.00,WUHU216HW,2013-01-22 12:54:00,
2013-01-22 07:59:00,45.9,35.2,30.20,NE,45,0.2,1.6,66,0.00,,,0.00,WUHU216HW,2013-01-22 12:59:00,
2013-01-22 08:04:00,46.1,35.4,30.20,NW,315,0.2,1.6,66,0.00,,,0.00,WUHU216HW,2013-01-22 13:04:00,
2013-01-22 08:09:00,46.1,35.4,30.20,NW,315,0.4,1.1,66,0.00,,,0.00,WUHU216HW,2013-01-22 13:09:00,
2013-01-22 08:14:00,46.1,34.9,30.20,NNW,338,1.1,3.6,65,0.00,,,0.00,WUHU216HW,2013-01-22 13:14:00,
2013-01-22 08:19:00,46.3,35.1,30.21,NW,315,0.2,3.6,65,0.00,,,0.00,WUHU216HW,2013-01-22 13:19:00,
2013-01-22 08:24:00,46.4,34.5,30.21,North,0,0.2,2.5,63,0.00,,,0.00,WUHU216HW,2013-01-22 13:24:00,
2013-01-22 08:29:00,46.6,33.8,30.21,NW,315,0.2,0.9,61,0.00,,,0.00,WUHU216HW,2013-01-22 13:29:00,
2013-01-22 08:34:00,46.8,33.2,30.21,NNW,338,0.2,1.1,59,0.00,,,0.00,WUHU216HW,2013-01-22 13:34:00,
2013-01-22 08:39:00,47.0,33.0,30.21,North,0,0.4,1.1,58,0.00,,,0.00,WUHU216HW,2013-01-22 13:39:00,
2013-01-22 08:44:00,47.2,33.6,30.22,North,0,0.7,2.5,59,0.00,,,0.00,WUHU216HW,2013-01-22 13:44:00,
2013-01-22 08:49:00,47.5,33.5,30.22,NW,315,0.4,2.5,58,0.00,,,0.00,WUHU216HW,2013-01-22 13:49:00,
2013-01-22 08:54:00,47.9,33.4,30.23,NNW,338,0.9,1.1,57,0.00,,,0.00,WUHU216HW,2013-01-22 13:54:00,
2013-01-22 08:59:00,48.1,33.5,30.23,North,0,0.7,1.3,57,0.00,,,0.00,WUHU216HW,2013-01-22 13:59:00,
2013-01-22 09:04:00,48.4,34.8,30.23,NNW,338,0.2,1.3,59,0.00,,,0.00,WUHU216HW,2013-01-22 14:04:00,
2013-01-22 09:09:00,48.6,34.5,30.23,NNW,338,0.2,1.1,58,0.00,,,0.00,WUHU216HW,2013-01-22 14:09:00,
2013-01-22 09:14:00,48.8,34.2,30.23,ESE,113,0.0,1.3,57,0.00,,,0.00,WUHU216HW,2013-01-22 14:14:00,
2013-01-22 09:19:00,49.3,35.2,30.24,NW,315,0.4,1.3,58,0.00,,,0.00,WUHU216HW,2013-01-22 14:19:00,
2013-01-22 09:24:00,49.5,34.4,30.24,NNW,338,1.1,1.1,56,0.00,,,0.00,WUHU216HW,2013-01-22 14:24:00,
2013-01-22 09:29:00,49.7,34.6,30.24,NW,315,0.2,2.0,56,0.00,,,0.00,WUHU216HW,2013-01-22 14:29:00,
2013-01-22 09:34:00,50.0,34.9,30.24,North,0,0.4,2.0,56,0.00,,,0.00,WUHU216HW,2013-01-22 14:34:00,
2013-01-22 09:39:00,50.4,34.8,30.25,NW,315,0.4,1.8,55,0.00,,,0.00,WUHU216HW,2013-01-22 14:39:00,
2013-01-22 09:44:00,50.8,34.2,30.25,North,0,0.4,2.2,53,0.00,,,0.00,WUHU216HW,2013-01-22 14:44:00,
2013-01-22 09:49:00,50.8,34.2,30.25,North,0,1.1,2.9,53,0.00,,,0.00,WUHU216HW,2013-01-22 14:49:00,
2013-01-22 09:54:00,50.8,34.2,30.25,North,0,1.1,2.9,53,0.00,,,0.00,WUHU216HW,2013-01-22 14:54:00,
2013-01-22 10:00:00,51.5,33.5,30.26,NW,315,0.0,0.0,50,0.00,,,0.00,WUHU216HW,2013-01-22 15:00:00,
2013-01-22 10:05:00,51.7,33.1,30.26,North,0,1.1,1.1,49,0.00,,,0.00,WUHU216HW,2013-01-22 15:05:00,
2013-01-22 10:10:00,52.0,34.0,30.26,North,0,0.2,1.1,50,0.00,,,0.00,WUHU216HW,2013-01-22 15:10:00,
2013-01-22 10:15:00,52.2,34.2,30.26,North,0,0.0,3.6,50,0.00,,,0.00,WUHU216HW,2013-01-22 15:15:00,
2013-01-22 10:20:00,52.6,32.9,30.26,North,0,0.4,3.6,47,0.00,,,0.00,WUHU216HW,2013-01-22 15:20:00,
2013-01-22 10:25:00,52.6,32.2,30.27,NNW,338,0.2,2.0,46,0.00,,,0.00,WUHU216HW,2013-01-22 15:25:00,
2013-01-22 10:30:00,52.6,32.2,30.27,NNE,23,0.0,1.8,46,0.00,,,0.00,WUHU216HW,2013-01-22 15:30:00,
2013-01-22 10:35:00,52.9,32.6,30.27,North,0,0.2,1.8,46,0.00,,,0.00,WUHU216HW,2013-01-22 15:35:00,
2013-01-22 10:40:00,53.3,32.3,30.27,ENE,68,1.1,1.8,45,0.00,,,0.00,WUHU216HW,2013-01-22 15:40:00,
2013-01-22 10:45:00,53.6,32.7,30.26,North,0,0.9,1.1,45,0.00,,,0.00,WUHU216HW,2013-01-22 15:45:00,
2013-01-22 10:50:00,54.0,33.6,30.27,NW,315,0.4,1.8,46,0.00,,,0.00,WUHU216HW,2013-01-22 15:50:00,
2013-01-22 10:55:00,54.5,33.5,30.27,NE,45,0.2,2.2,45,0.00,,,0.00,WUHU216HW,2013-01-22 15:55:00,
2013-01-22 11:00:00,54.9,34.4,30.27,NNW,338,0.7,2.2,46,0.00,,,0.00,WUHU216HW,2013-01-22 16:00:00,
2013-01-22 11:05:00,55.3,32.5,30.27,NNW,338,1.1,1.8,42,0.00,,,0.00,WUHU216HW,2013-01-22 16:05:00,
2013-01-22 11:10:00,55.6,32.2,30.27,NNW,338,0.4,3.1,41,0.00,,,0.00,WUHU216HW,2013-01-22 16:10:00,
2013-01-22 11:15:00,55.6,31.7,30.27,NNW,338,0.4,3.1,40,0.00,,,0.00,WUHU216HW,2013-01-22 16:15:00,
2013-01-22 11:20:00,56.0,31.3,30.27,WSW,248,0.4,2.0,39,0.00,,,0.00,WUHU216HW,2013-01-22 16:20:00,
2013-01-22 11:25:00,55.8,31.9,30.27,NNE,23,0.4,1.8,40,0.00,,,0.00,WUHU216HW,2013-01-22 16:25:00,
2013-01-22 11:30:00,55.8,32.4,30.27,NNE,23,0.4,1.8,41,0.00,,,0.00,WUHU216HW,2013-01-22 16:30:00,
2013-01-22 12:00:00,57.2,33.7,30.26,North,0,0.4,0.4,41,0.00,,,0.00,WUHU216HW,2013-01-22 17:00:00,
2013-01-22 12:05:00,57.6,32.8,30.25,NNW,338,0.9,3.4,39,0.00,,,0.00,WUHU216HW,2013-01-22 17:05:00,
2013-01-22 12:10:00,57.8,33.0,30.25,NNW,338,0.0,4.0,39,0.00,,,0.00,WUHU216HW,2013-01-22 17:10:00,
2013-01-22 12:15:00,58.1,33.9,30.25,NNW,338,0.4,4.0,40,0.00,,,0.00,WUHU216HW,2013-01-22 17:15:00,
2013-01-22 12:20:00,58.3,33.4,30.25,WNW,293,0.4,2.2,39,0.00,,,0.00,WUHU216HW,2013-01-22 17:20:00,
2013-01-22 12:25:00,58.5,32.9,30.25,North,0,0.2,2.2,38,0.00,,,0.00,WUHU216HW,2013-01-22 17:25:00,
2013-01-22 12:30:00,58.5,33.6,30.24,NNW,338,0.7,1.3,39,0.00,,,0.00,WUHU216HW,2013-01-22 17:30:00,
2013-01-22 12:35:00,58.9,33.2,30.24,NW,315,0.2,1.3,38,0.00,,,0.00,WUHU216HW,2013-01-22 17:35:00,
2013-01-22 12:40:00,59.4,34.4,30.24,WSW,248,0.4,1.3,39,0.00,,,0.00,WUHU216HW,2013-01-22 17:40:00,
2013-01-22 12:45:00,59.9,33.4,30.24,NW,315,1.6,2.5,37,0.00,,,0.00,WUHU216HW,2013-01-22 17:45:00,
2013-01-22 12:50:00,59.9,33.4,30.23,NNW,338,2.7,2.7,37,0.00,,,0.00,WUHU216HW,2013-01-22 17:50:00,
2013-01-22 12:55:00,60.1,34.3,30.23,NW,315,0.0,3.8,38,0.00,,,0.00,WUHU216HW,2013-01-22 17:55:00,
2013-01-22 13:00:00,60.7,35.5,30.23,NNW,338,0.9,3.8,39,0.00,,,0.00,WUHU216HW,2013-01-22 18:00:00,
2013-01-22 13:05:00,61.6,34.8,30.22,NNE,23,0.2,1.3,37,0.00,,,0.00,WUHU216HW,2013-01-22 18:05:00,
2013-01-22 13:10:00,61.9,33.0,30.22,NW,315,1.3,3.1,34,0.00,,,0.00,WUHU216HW,2013-01-22 18:10:00,
2013-01-22 13:15:00,61.9,32.3,30.22,NNW,338,1.6,4.0,33,0.00,,,0.00,WUHU216HW,2013-01-22 18:15:00,
2013-01-22 13:20:00,61.9,31.6,30.22,NNW,338,0.9,4.0,32,0.00,,,0.00,WUHU216HW,2013-01-22 18:20:00,
2013-01-22 13:25:00,61.9,32.3,30.21,NNW,338,2.2,2.2,33,0.00,,,0.00,WUHU216HW,2013-01-22 18:25:00,
2013-01-22 13:30:00,62.3,34.0,30.21,North,0,0.2,2.9,35,0.00,,,0.00,WUHU216HW,2013-01-22 18:30:00,
2013-01-22 13:35:00,62.5,32.8,30.21,NW,315,1.1,2.9,33,0.00,,,0.00,WUHU216HW,2013-01-22 18:35:00,
2013-01-22 13:40:00,62.6,33.7,30.21,NNW,338,0.7,2.5,34,0.00,,,0.00,WUHU216HW,2013-01-22 18:40:00,
2013-01-22 13:45:00,62.5,32.0,30.21,North,0,0.4,2.5,32,0.00,,,0.00,WUHU216HW,2013-01-22 18:45:00,
2013-01-22 13:50:00,62.5,32.8,30.21,NNW,338,0.0,2.5,33,0.00,,,0.00,WUHU216HW,2013-01-22 18:50:00,
2013-01-22 13:55:00,62.5,32.8,30.21,NNW,338,0.9,3.6,33,0.00,,,0.00,WUHU216HW,2013-01-22 18:55:00,
2013-01-22 14:00:00,63.0,34.0,30.21,NW,315,3.1,3.6,34,0.00,,,0.00,WUHU216HW,2013-01-22 19:00:00,
2013-01-22 14:05:00,63.7,33.2,30.20,NW,315,0.9,4.5,32,0.00,,,0.00,WUHU216HW,2013-01-22 19:05:00,
2013-01-22 14:10:00,63.9,32.7,30.20,NW,315,0.9,4.5,31,0.00,,,0.00,WUHU216HW,2013-01-22 19:10:00,
2013-01-22 14:15:00,63.9,34.1,30.20,West,270,2.7,2.9,33,0.00,,,0.00,WUHU216HW,2013-01-22 19:15:00,
2013-01-22 14:20:00,64.4,34.6,30.20,NNE,23,0.4,5.1,33,0.00,,,0.00,WUHU216HW,2013-01-22 19:20:00,
2013-01-22 14:25:00,64.6,34.0,30.21,NNW,338,0.2,5.1,32,0.00,,,0.00,WUHU216HW,2013-01-22 19:25:00,
2013-01-22 14:30:00,64.1,32.8,30.20,NNW,338,1.1,2.5,31,0.00,,,0.00,WUHU216HW,2013-01-22 19:30:00,
2013-01-22 14:35:00,64.1,34.2,30.20,NW,315,3.4,3.4,33,0.00,,,0.00,WUHU216HW,2013-01-22 19:35:00,
2013-01-22 14:40:00,64.6,34.0,30.20,North,0,0.4,3.4,32,0.00,,,0.00,WUHU216HW,2013-01-22 19:40:00,
2013-01-22 14:45:00,65.0,35.0,30.20,West,270,0.2,2.9,33,0.00,,,0.00,WUHU216HW,2013-01-22 19:45:00,
2013-01-22 14:50:00,65.5,34.8,30.20,NNW,338,2.0,2.9,32,0.00,,,0.00,WUHU216HW,2013-01-22 19:50:00,
2013-01-22 14:55:00,65.9,35.1,30.20,NNW,338,0.4,2.5,32,0.00,,,0.00,WUHU216HW,2013-01-22 19:55:00,
2013-01-22 15:00:00,65.2,33.8,30.20,NW,315,0.2,2.5,31,0.00,,,0.00,WUHU216HW,2013-01-22 20:00:00,
2013-01-22 15:05:00,65.2,33.8,30.20,NNW,338,1.3,2.5,31,0.00,,,0.00,WUHU216HW,2013-01-22 20:05:00,
2013-01-22 15:10:00,64.8,34.2,30.20,NW,315,0.2,4.3,32,0.00,,,0.00,WUHU216HW,2013-01-22 20:10:00,
2013-01-22 15:15:00,64.4,33.8,30.20,NNW,338,0.4,4.3,32,0.00,,,0.00,WUHU216HW,2013-01-22 20:15:00,
2013-01-22 15:20:00,64.8,34.2,30.20,NW,315,0.2,2.5,32,0.00,,,0.00,WUHU216HW,2013-01-22 20:20:00,
2013-01-22 15:25:00,64.4,33.8,30.20,North,0,0.2,1.8,32,0.00,,,0.00,WUHU216HW,2013-01-22 20:25:00,
2013-01-22 16:00:00,64.8,34.9,30.21,West,270,1.3,1.3,33,0.00,,,0.00,WUHU216HW,2013-01-22 21:00:00,
2013-01-22 16:05:00,65.2,34.5,30.21,NW,315,0.4,4.7,32,0.00,,,0.00,WUHU216HW,2013-01-22 21:05:00,
2013-01-22 16:10:00,64.8,34.2,30.21,WNW,293,0.4,4.7,32,0.00,,,0.00,WUHU216HW,2013-01-22 21:10:00,
2013-01-22 16:15:00,64.3,33.7,30.22,North,0,1.1,2.5,32,0.00,,,0.00,WUHU216HW,2013-01-22 21:15:00,
2013-01-22 16:20:00,63.5,33.0,30.22,NW,315,3.4,3.4,32,0.00,,,0.00,WUHU216HW,2013-01-22 21:20:00,
2013-01-22 16:25:00,62.8,32.4,30.22,North,0,0.0,4.3,32,0.00,,,0.00,WUHU216HW,2013-01-22 21:25:00,
2013-01-22 16:30:00,62.6,32.2,30.22,WNW,293,0.2,4.3,32,0.00,,,0.00,WUHU216HW,2013-01-22 21:30:00,
2013-01-22 16:31:00,62.5,32.0,30.22,North,0,2.5,4.3,32,0.00,,,0.00,WUHU216HW,2013-01-22 21:31:00,
2013-01-22 16:36:00,62.1,32.5,30.22,NNE,23,0.0,3.1,33,0.00,,,0.00,WUHU216HW,2013-01-22 21:36:00,
2013-01-22 16:41:00,61.9,32.3,30.23,NNW,338,0.4,2.5,33,0.00,,,0.00,WUHU216HW,2013-01-22 21:41:00,
2013-01-22 16:46:00,61.6,32.7,30.23,NNW,338,0.0,4.0,34,0.00,,,0.00,WUHU216HW,2013-01-22 21:46:00,
2013-01-22 16:51:00,61.4,33.2,30.23,West,270,0.4,4.0,35,0.00,,,0.00,WUHU216HW,2013-01-22 21:51:00,
2013-01-22 16:56:00,61.0,32.2,30.23,East,90,0.4,2.9,34,0.00,,,0.00,WUHU216HW,2013-01-22 21:56:00,
2013-01-22 17:01:00,60.8,33.5,30.23,North,0,0.7,2.9,36,0.00,,,0.00,WUHU216HW,2013-01-22 22:01:00,
2013-01-22 17:06:00,60.7,34.0,30.23,NW,315,0.2,1.8,37,0.00,,,0.00,WUHU216HW,2013-01-22 22:06:00,
2013-01-22 17:11:00,60.3,33.8,30.23,NW,315,0.2,3.4,37,0.00,,,0.00,WUHU216HW,2013-01-22 22:11:00,
2013-01-22 17:16:00,60.1,34.3,30.23,WNW,293,0.0,3.4,38,0.00,,,0.00,WUHU216HW,2013-01-22 22:16:00,
2013-01-22 17:21:00,59.8,33.9,30.23,NNW,338,1.1,1.6,38,0.00,,,0.00,WUHU216HW,2013-01-22 22:21:00,
2013-01-22 17:26:00,59.4,33.7,30.23,NW,315,0.2,2.5,38,0.00,,,0.00,WUHU216HW,2013-01-22 22:26:00,
2013-01-22 17:31:00,59.2,33.5,30.23,NNW,338,0.4,2.5,38,0.00,,,0.00,WUHU216HW,2013-01-22 22:31:00,
2013-01-22 17:36:00,59.0,34.0,30.23,NNW,338,0.7,0.9,39,0.00,,,0.00,WUHU216HW,2013-01-22 22:36:00,
2013-01-22 17:41:00,58.7,33.8,30.24,NW,315,0.2,2.0,39,0.00,,,0.00,WUHU216HW,2013-01-22 22:41:00,
2013-01-22 17:46:00,58.5,33.6,30.24,WSW,248,0.2,2.0,39,0.00,,,0.00,WUHU216HW,2013-01-22 22:46:00,
2013-01-22 17:51:00,58.3,34.1,30.24,WNW,293,0.4,0.7,40,0.00,,,0.00,WUHU216HW,2013-01-22 22:51:00,
2013-01-22 17:56:00,58.0,33.8,30.25,NNW,338,2.5,2.5,40,0.00,,,0.00,WUHU216HW,2013-01-22 22:56:00,
2013-01-22 18:01:00,57.6,33.5,30.25,WNW,293,0.0,2.5,40,0.00,,,0.00,WUHU216HW,2013-01-22 23:01:00,
2013-01-22 18:06:00,57.4,33.8,30.24,NW,315,0.2,2.5,41,0.00,,,0.00,WUHU216HW,2013-01-22 23:06:00,
2013-01-22 18:11:00,57.2,33.7,30.25,WNW,293,0.0,0.4,41,0.00,,,0.00,WUHU216HW,2013-01-22 23:11:00,
2013-01-22 18:16:00,57.1,34.1,30.25,WNW,293,0.0,0.4,42,0.00,,,0.00,WUHU216HW,2013-01-22 23:16:00,
2013-01-22 18:21:00,56.7,34.4,30.25,WNW,293,0.0,0.2,43,0.00,,,0.00,WUHU216HW,2013-01-22 23:21:00,
2013-01-22 18:26:00,56.3,34.0,30.25,WNW,293,0.0,0.0,43,0.00,,,0.00,WUHU216HW,2013-01-22 23:26:00,
2013-01-22 18:31:00,56.0,33.7,30.25,WNW,293,0.0,0.0,43,0.00,,,0.00,WUHU216HW,2013-01-22 23:31:00,
2013-01-22 18:36:00,55.6,33.9,30.25,WNW,293,0.0,0.0,44,0.00,,,0.00,WUHU216HW,2013-01-22 23:36:00,
2013-01-22 18:41:00,55.3,33.6,30.25,WNW,293,0.0,0.0,44,0.00,,,0.00,WUHU216HW,2013-01-22 23:41:00,
2013-01-22 18:46:00,55.1,33.9,30.25,WNW,293,0.0,0.0,45,0.00,,,0.00,WUHU216HW,2013-01-22 23:46:00,
2013-01-22 18:51:00,54.9,34.4,30.25,WNW,293,0.0,0.0,46,0.00,,,0.00,WUHU216HW,2013-01-22 23:51:00,
2013-01-22 18:56:00,54.7,34.7,30.25,WNW,293,0.0,0.0,47,0.00,,,0.00,WUHU216HW,2013-01-22 23:56:00,
2013-01-22 19:01:00,54.4,34.5,30.26,WNW,293,0.0,0.0,47,0.00,,,0.00,WUHU216HW,2013-01-23 00:01:00,
2013-01-22 19:06:00,53.6,34.4,30.26,WNW,293,0.0,0.0,48,0.00,,,0.00,WUHU216HW,2013-01-23 00:06:00,
2013-01-22 19:11:00,53.1,33.8,30.26,WNW,293,0.0,0.0,48,0.00,,,0.00,WUHU216HW,2013-01-23 00:11:00,
2013-01-22 19:16:00,52.9,34.3,30.26,WNW,293,0.0,0.0,49,0.00,,,0.00,WUHU216HW,2013-01-23 00:16:00,
2013-01-22 19:21:00,52.2,33.6,30.25,WNW,293,0.0,0.0,49,0.00,,,0.00,WUHU216HW,2013-01-23 00:21:00,
2013-01-22 19:26:00,51.5,32.9,30.25,WNW,293,0.0,0.0,49,0.00,,,0.00,WUHU216HW,2013-01-23 00:26:00,
2013-01-22 19:31:00,51.3,33.4,30.26,WNW,293,0.0,0.0,50,0.00,,,0.00,WUHU216HW,2013-01-23 00:31:00,
2013-01-22 19:36:00,51.3,33.4,30.25,WNW,293,0.0,0.0,50,0.00,,,0.00,WUHU216HW,2013-01-23 00:36:00,
2013-01-22 19:41:00,51.5,33.9,30.25,WNW,293,0.0,0.0,51,0.00,,,0.00,WUHU216HW,2013-01-23 00:41:00,
2013-01-22 19:46:00,51.3,33.9,30.26,WNW,293,0.0,0.0,51,0.00,,,0.00,WUHU216HW,2013-01-23 00:46:00,
2013-01-22 19:51:00,51.1,33.7,30.26,WNW,293,0.0,0.0,51,0.00,,,0.00,WUHU216HW,2013-01-23 00:51:00,
2013-01-22 19:56:00,50.9,33.9,30.26,WNW,293,0.0,0.0,52,0.00,,,0.00,WUHU216HW,2013-01-23 00:56:00,
2013-01-22 20:01:00,51.1,34.6,30.25,WNW,293,0.0,0.0,53,0.00,,,0.00,WUHU216HW,2013-01-23 01:01:00,
2013-01-22 20:06:00,50.9,34.4,30.26,WNW,293,0.0,0.0,53,0.00,,,0.00,WUHU216HW,2013-01-23 01:06:00,
2013-01-22 20:11:00,50.6,34.0,30.26,WNW,293,0.0,0.0,53,0.00,,,0.00,WUHU216HW,2013-01-23 01:11:00,
2013-01-22 20:16:00,50.2,33.8,30.26,WNW,293,0.0,0.0,53,0.00,,,0.00,WUHU216HW,2013-01-23 01:16:00,
2013-01-22 20:21:00,50.0,34.0,30.26,WNW,293,0.0,0.0,54,0.00,,,0.00,WUHU216HW,2013-01-23 01:21:00,
2013-01-22 20:26:00,50.0,34.0,30.26,WNW,293,0.0,0.0,54,0.00,,,0.00,WUHU216HW,2013-01-23 01:26:00,
2013-01-22 20:31:00,49.7,33.7,30.26,WNW,293,0.0,0.0,54,0.00,,,0.00,WUHU216HW,2013-01-23 01:31:00,
2013-01-22 20:36:00,48.8,33.3,30.26,WNW,293,0.0,0.0,55,0.00,,,0.00,WUHU216HW,2013-01-23 01:36:00,
2013-01-22 20:41:00,48.4,33.4,30.26,NW,315,0.0,0.0,56,0.00,,,0.00,WUHU216HW,2013-01-23 01:41:00,
2013-01-22 20:47:00,48.1,33.5,30.26,ENE,68,0.0,0.0,57,0.00,,,0.00,WUHU216HW,2013-01-23 01:47:00,
2013-01-22 20:52:00,47.9,34.3,30.26,ESE,113,0.0,0.0,59,0.00,,,0.00,WUHU216HW,2013-01-23 01:52:00,
2013-01-22 20:57:00,48.2,35.1,30.26,ESE,113,0.0,0.0,60,0.00,,,0.00,WUHU216HW,2013-01-23 01:57:00,
2013-01-22 21:02:00,48.4,35.3,30.26,ESE,113,0.0,0.0,60,0.00,,,0.00,WUHU216HW,2013-01-23 02:02:00,
2013-01-22 21:07:00,47.9,35.1,30.26,ESE,113,0.0,0.0,61,0.00,,,0.00,WUHU216HW,2013-01-23 02:07:00,
2013-01-22 21:12:00,47.5,34.7,30.26,ESE,113,0.0,0.0,61,0.00,,,0.00,WUHU216HW,2013-01-23 02:12:00,
2013-01-22 21:17:00,47.2,34.4,30.26,ESE,113,0.0,0.0,61,0.00,,,0.00,WUHU216HW,2013-01-23 02:17:00,
2013-01-22 21:22:00,46.8,33.7,30.26,ESE,113,0.0,0.0,60,0.00,,,0.00,WUHU216HW,2013-01-23 02:22:00,
2013-01-22 21:27:00,46.6,33.8,30.26,ESE,113,0.0,0.0,61,0.00,,,0.00,WUHU216HW,2013-01-23 02:27:00,
2013-01-22 21:32:00,46.6,34.3,30.26,WNW,293,0.0,0.0,62,0.00,,,0.00,WUHU216HW,2013-01-23 02:32:00,
2013-01-22 21:37:00,46.4,34.1,30.27,WNW,293,0.0,0.0,62,0.00,,,0.00,WUHU216HW,2013-01-23 02:37:00,
2013-01-22 21:42:00,46.3,33.9,30.27,WNW,293,0.0,0.0,62,0.00,,,0.00,WUHU216HW,2013-01-23 02:42:00,
2013-01-22 21:47:00,46.1,33.8,30.26,WNW,293,0.0,0.0,62,0.00,,,0.00,WUHU216HW,2013-01-23 02:47:00,
2013-01-22 21:52:00,45.9,33.6,30.27,East,90,0.0,0.0,62,0.00,,,0.00,WUHU216HW,2013-01-23 02:52:00,
2013-01-22 21:57:00,45.7,33.9,30.27,East,90,0.0,0.2,63,0.00,,,0.00,WUHU216HW,2013-01-23 02:57:00,
2013-01-22 22:02:00,45.2,33.3,30.26,East,90,0.0,0.2,63,0.00,,,0.00,WUHU216HW,2013-01-23 03:02:00,
2013-01-22 22:07:00,45.2,33.7,30.27,East,90,0.0,0.0,64,0.00,,,0.00,WUHU216HW,2013-01-23 03:07:00,
2013-01-22 22:12:00,45.2,33.7,30.27,East,90,0.0,0.0,64,0.00,,,0.00,WUHU216HW,2013-01-23 03:12:00,
2013-01-22 22:17:00,45.2,34.1,30.27,WNW,293,0.0,0.0,65,0.00,,,0.00,WUHU216HW,2013-01-23 03:17:00,
2013-01-22 22:22:00,45.0,33.9,30.28,WNW,293,0.0,0.0,65,0.00,,,0.00,WUHU216HW,2013-01-23 03:22:00,
2013-01-22 22:28:00,44.6,33.6,30.28,NW,315,0.0,0.0,65,0.00,,,0.00,WUHU216HW,2013-01-23 03:28:00,
2013-01-22 22:33:00,44.5,33.8,30.28,NW,315,0.0,0.0,66,0.00,,,0.00,WUHU216HW,2013-01-23 03:33:00,
2013-01-22 22:38:00,44.5,33.8,30.28,NW,315,0.0,0.0,66,0.00,,,0.00,WUHU216HW,2013-01-23 03:38:00,
2013-01-22 22:43:00,44.3,33.6,30.29,NW,315,0.0,0.0,66,0.00,,,0.00,WUHU216HW,2013-01-23 03:43:00,
2013-01-22 22:48:00,44.3,34.0,30.29,ESE,113,0.0,0.0,67,0.00,,,0.00,WUHU216HW,2013-01-23 03:48:00,
2013-01-22 22:53:00,44.3,34.4,30.29,ESE,113,0.0,0.4,68,0.00,,,0.00,WUHU216HW,2013-01-23 03:53:00,
2013-01-22 22:58:00,44.3,34.4,30.29,ESE,113,0.0,0.4,68,0.00,,,0.00,WUHU216HW,2013-01-23 03:58:00,
2013-01-22 23:03:00,44.3,34.4,30.29,ESE,113,0.0,0.0,68,0.00,,,0.00,WUHU216HW,2013-01-23 04:03:00,
2013-01-22 23:08:00,44.3,34.4,30.29,ESE,113,0.0,0.0,68,0.00,,,0.00,WUHU216HW,2013-01-23 04:08:00,
2013-01-22 23:13:00,44.3,34.4,30.29,ESE,113,0.0,0.0,68,0.00,,,0.00,WUHU216HW,2013-01-23 04:13:00,
2013-01-22 23:18:00,44.1,34.2,30.29,ESE,113,0.0,0.0,68,0.00,,,0.00,WUHU216HW,2013-01-23 04:18:00,
2013-01-22 23:23:00,43.7,33.8,30.29,ESE,113,0.0,0.0,68,0.00,,,0.00,WUHU216HW,2013-01-23 04:23:00,
2013-01-22 23:28:00,43.4,33.6,30.30,NW,315,0.0,0.0,68,0.00,,,0.00,WUHU216HW,2013-01-23 04:28:00,
2013-01-22 23:33:00,42.8,33.0,30.30,NW,315,0.0,0.0,68,0.00,,,0.00,WUHU216HW,2013-01-23 04:33:00,
2013-01-22 23:37:00,42.8,33.5,30.29,WNW,293,0.0,0.0,69,0.00,,,0.00,WUHU216HW,2013-01-23 04:37:00,
2013-01-22 23:38:00,42.8,33.5,30.29,WNW,293,0.0,0.0,69,0.00,,,0.00,WUHU216HW,2013-01-23 04:38:00,
2013-01-22 23:43:00,42.8,33.5,30.29,WNW,293,0.0,0.0,69,0.00,,,0.00,WUHU216HW,2013-01-23 04:43:00,